Time;durP1;ratioP1;P1;durP2;ratioP2;P2;SDS_P1;SDS_P2;PMS_P1;PMS_P2;Temp;Humidity;BMP_temperature;BMP_pressure;BME280_temperature;BME280_humidity;BME280_pressure;Samples;Min_cycle;Max_cycle;Signal;HPM_P1;HPM_P2
2022/11/13 00:00:02;;;;;;;54.03;32.00;;;;;;;7.48;88.22;100490.45;2172894;81;20933;-84
2022/11/13 00:03:03;;;;;;;52.93;33.60;;;;;;;7.49;88.20;100487.03;2173344;81;20965;-84
2022/11/13 00:06:03;;;;;;;54.90;33.80;;;;;;;7.48;88.21;100480.05;2173446;81;20897;-85
2022/11/13 00:09:03;;;;;;;58.13;33.03;;;;;;;7.47;88.28;100474.37;2173636;81;21000;-84
2022/11/13 00:12:04;;;;;;;50.50;30.83;;;;;;;7.46;88.15;100472.59;2173277;81;20973;-84
2022/11/13 00:15:04;;;;;;;53.10;32.63;;;;;;;7.44;88.30;100470.32;2173589;81;20924;-84
2022/11/13 00:18:05;;;;;;;53.53;35.87;;;;;;;7.41;88.28;100467.57;2173499;81;20985;-84
2022/11/13 00:21:05;;;;;;;63.73;39.43;;;;;;;7.41;88.42;100461.48;2173446;81;21008;-85
2022/11/13 00:24:05;;;;;;;52.03;33.07;;;;;;;7.37;88.46;100462.14;2173257;81;21029;-85
2022/11/13 00:27:06;;;;;;;48.87;32.40;;;;;;;7.30;88.37;100458.34;2173210;81;20926;-84
2022/11/13 00:30:06;;;;;;;108.13;71.20;;;;;;;7.28;88.79;100466.47;2173552;81;21297;-85
2022/11/13 00:33:07;;;;;;;117.80;81.60;;;;;;;7.32;88.92;100469.70;2173466;81;20993;-84
2022/11/13 00:36:07;;;;;;;98.27;64.47;;;;;;;7.30;88.94;100474.83;2173334;81;20925;-86
2022/11/13 00:39:07;;;;;;;58.43;35.97;;;;;;;7.30;89.14;100471.34;2173592;81;20996;-84
2022/11/13 00:42:08;;;;;;;63.40;39.93;;;;;;;7.31;89.15;100472.71;2173406;81;21364;-84
2022/11/13 00:45:08;;;;;;;70.53;44.90;;;;;;;7.30;89.07;100460.94;2173395;81;20921;-84
2022/11/13 00:48:09;;;;;;;72.47;45.13;;;;;;;7.33;89.25;100464.59;2173503;81;20989;-83
2022/11/13 00:51:09;;;;;;;64.10;39.00;;;;;;;7.33;89.28;100459.39;2173237;81;20957;-84
2022/11/13 00:54:10;;;;;;;53.93;34.17;;;;;;;7.33;89.19;100467.59;2162335;82;21958;-83
2022/11/13 00:57:11;;;;;;;57.33;35.20;;;;;;;7.28;89.16;100463.87;2173407;81;21384;-84
2022/11/13 01:00:11;;;;;;;55.73;36.97;;;;;;;7.25;89.43;100469.80;2173358;81;20965;-84
2022/11/13 01:03:12;;;;;;;57.07;34.70;;;;;;;7.27;89.61;100464.28;2173298;81;20953;-84
2022/11/13 01:06:12;;;;;;;73.07;47.83;;;;;;;7.28;89.58;100456.08;2173263;82;20945;-84
2022/11/13 01:09:12;;;;;;;56.33;36.60;;;;;;;7.27;89.85;100453.00;2173255;81;20957;-84
2022/11/13 01:12:13;;;;;;;59.47;37.43;;;;;;;7.23;89.77;100448.06;2173398;81;21396;-84
2022/11/13 01:15:13;;;;;;;73.27;47.00;;;;;;;7.20;89.89;100448.31;2172958;81;21356;-83
2022/11/13 01:18:14;;;;;;;70.77;40.70;;;;;;;7.21;90.09;100447.49;2173181;81;20901;-84
2022/11/13 01:21:14;;;;;;;67.03;37.80;;;;;;;7.22;89.97;100447.98;2173103;81;20963;-84
2022/11/13 01:24:14;;;;;;;56.10;34.67;;;;;;;7.20;90.35;100437.92;2172983;81;21318;-84
2022/11/13 01:27:15;;;;;;;64.30;35.50;;;;;;;7.19;90.55;100446.52;2173000;81;20996;-84
2022/11/13 01:30:15;;;;;;;60.00;34.07;;;;;;;7.18;90.62;100441.73;2172901;81;20974;-85
2022/11/13 01:33:16;;;;;;;54.80;34.40;;;;;;;7.21;90.82;100437.11;2172702;81;20992;-83
2022/11/13 01:36:16;;;;;;;62.50;34.13;;;;;;;7.20;90.66;100440.52;2173028;81;20973;-84
2022/11/13 01:39:16;;;;;;;58.40;35.70;;;;;;;7.17;90.70;100434.77;2172717;82;20993;-84
2022/11/13 01:42:17;;;;;;;58.73;34.97;;;;;;;7.17;91.04;100426.08;2173154;81;20949;-84
2022/11/13 01:45:17;;;;;;;60.83;35.87;;;;;;;7.16;91.24;100437.28;2172925;81;21507;-84
2022/11/13 01:48:18;;;;;;;63.50;37.57;;;;;;;7.14;91.27;100433.72;2173115;81;21307;-84
2022/11/13 01:51:18;;;;;;;66.57;36.87;;;;;;;7.10;91.49;100429.18;2173089;81;20953;-84
2022/11/13 01:54:18;;;;;;;65.60;36.23;;;;;;;7.12;91.54;100432.75;2172633;81;21028;-84
2022/11/13 01:57:19;;;;;;;65.60;37.47;;;;;;;7.12;91.63;100431.45;2175729;81;20980;-84
2022/11/13 02:00:19;;;;;;;71.50;40.40;;;;;;;7.10;91.70;100424.88;2190056;81;21008;-83
2022/11/13 02:03:20;;;;;;;68.73;39.37;;;;;;;7.09;91.67;100423.09;2189850;81;20916;-84
2022/11/13 02:06:20;;;;;;;70.37;39.40;;;;;;;7.09;91.90;100419.20;2189886;81;20988;-83
2022/11/13 02:09:20;;;;;;;72.53;40.90;;;;;;;7.07;91.89;100409.55;2189837;81;21024;-84
2022/11/13 02:12:21;;;;;;;72.70;41.50;;;;;;;7.07;91.99;100403.95;2190060;81;21016;-84
2022/11/13 02:15:22;;;;;;;73.33;41.07;;;;;;;7.08;92.19;100400.55;2190210;81;20959;-83
2022/11/13 02:18:22;;;;;;;72.30;41.43;;;;;;;7.10;91.92;100401.92;2189889;81;20945;-84
2022/11/13 02:21:22;;;;;;;70.97;40.90;;;;;;;7.10;92.13;100399.32;2190004;81;20964;-85
2022/11/13 02:24:23;;;;;;;77.47;43.33;;;;;;;7.14;92.14;100401.25;2190011;81;20960;-83
2022/11/13 02:27:23;;;;;;;75.23;41.30;;;;;;;7.12;91.91;100403.77;2189667;81;20961;-84
2022/11/13 02:30:23;;;;;;;76.53;41.70;;;;;;;7.10;91.74;100399.32;2190139;81;20976;-84
2022/11/13 02:33:24;;;;;;;70.83;41.73;;;;;;;7.08;92.09;100399.24;2190208;81;20968;-83
2022/11/13 02:36:24;;;;;;;74.43;41.77;;;;;;;7.08;92.00;100397.05;2190043;81;20960;-83
2022/11/13 02:39:24;;;;;;;71.37;41.13;;;;;;;7.10;92.08;100391.12;2190159;81;20888;-84
2022/11/13 02:42:25;;;;;;;79.73;42.40;;;;;;;7.12;91.98;100388.60;2190117;81;20932;-84
2022/11/13 02:45:25;;;;;;;69.73;40.23;;;;;;;7.11;92.21;100388.12;2190240;81;21007;-84
2022/11/13 02:48:27;;;;;;;75.20;40.47;;;;;;;7.12;92.58;100384.30;2189911;81;21336;-83
2022/11/13 02:51:28;;;;;;;79.67;42.07;;;;;;;7.16;92.31;100386.64;2190102;81;20940;-83
2022/11/13 02:54:28;;;;;;;74.60;42.57;;;;;;;7.15;92.33;100380.97;2190054;81;21356;-84
2022/11/13 02:57:28;;;;;;;76.37;44.40;;;;;;;7.15;92.33;100380.97;2189646;81;21388;-83
2022/11/13 03:00:29;;;;;;;73.80;41.10;;;;;;;7.15;92.28;100383.16;2189908;81;20945;-83
2022/11/13 03:03:29;;;;;;;77.27;42.10;;;;;;;7.19;92.41;100386.39;2190012;81;20936;-84
2022/11/13 03:06:30;;;;;;;77.30;42.33;;;;;;;7.17;92.25;100373.73;2190107;81;20940;-83
2022/11/13 03:09:30;;;;;;;74.17;42.57;;;;;;;7.14;92.28;100380.48;2189993;81;20972;-84
2022/11/13 03:12:30;;;;;;;70.37;41.40;;;;;;;7.14;92.38;100385.27;2189821;81;20972;-84
2022/11/13 03:15:31;;;;;;;81.13;44.20;;;;;;;7.15;92.35;100379.66;2189760;81;20924;-85
2022/11/13 03:18:31;;;;;;;82.33;42.87;;;;;;;7.14;92.48;100385.67;2189861;81;20996;-85
2022/11/13 03:21:32;;;;;;;82.97;44.03;;;;;;;7.14;92.30;100386.56;2189662;81;20940;-84
2022/11/13 03:24:32;;;;;;;76.23;41.83;;;;;;;7.09;92.19;100384.14;2189733;81;20976;-84
2022/11/13 03:27:32;;;;;;;82.63;41.73;;;;;;;7.10;92.45;100382.03;2189539;81;20941;-84
2022/11/13 03:30:33;;;;;;;74.40;41.07;;;;;;;7.12;92.60;100386.00;2189622;81;20980;-84
2022/11/13 03:33:33;;;;;;;79.03;43.23;;;;;;;7.12;92.53;100382.11;2189664;81;21015;-84
2022/11/13 03:36:34;;;;;;;79.73;42.43;;;;;;;7.10;92.64;100383.33;2189610;81;21325;-83
2022/11/13 03:39:34;;;;;;;74.53;43.10;;;;;;;7.07;92.61;100378.39;2189643;81;20945;-84
2022/11/13 03:42:35;;;;;;;77.80;41.67;;;;;;;6.98;92.68;100375.82;2189712;81;20948;-84
2022/11/13 03:45:35;;;;;;;78.63;41.53;;;;;;;6.97;92.86;100374.45;2189788;81;20960;-84
2022/11/13 03:48:35;;;;;;;82.73;43.33;;;;;;;6.97;93.12;100386.13;2189199;81;20987;-84
2022/11/13 03:51:36;;;;;;;73.47;42.97;;;;;;;6.96;93.21;100384.34;2189813;81;20948;-84
2022/11/13 03:54:36;;;;;;;76.03;42.83;;;;;;;6.99;93.32;100385.39;2189765;81;20991;-85
2022/11/13 03:57:36;;;;;;;71.07;41.70;;;;;;;6.99;93.20;100382.80;2189730;81;20964;-84
2022/11/13 04:00:37;;;;;;;73.07;41.23;;;;;;;7.01;93.24;100388.06;2190154;81;21415;-84
2022/11/13 04:03:37;;;;;;;81.73;44.27;;;;;;;7.03;93.15;100391.62;2190034;81;20976;-84
2022/11/13 04:06:38;;;;;;;73.03;43.20;;;;;;;7.01;93.14;100385.06;2189867;81;20952;-83
2022/11/13 04:09:38;;;;;;;79.80;44.03;;;;;;;7.02;93.20;100385.95;2190023;81;21016;-83
2022/11/13 04:12:39;;;;;;;85.23;45.50;;;;;;;7.01;93.17;100378.57;2189888;81;20992;-84
2022/11/13 04:15:39;;;;;;;81.17;46.00;;;;;;;7.01;93.36;100375.97;2189928;81;20944;-83
2022/11/13 04:18:39;;;;;;;80.17;46.10;;;;;;;7.02;93.48;100376.45;2189903;81;21416;-84
2022/11/13 04:21:40;;;;;;;83.60;46.93;;;;;;;7.03;93.52;100383.43;2189936;81;20992;-84
2022/11/13 04:24:40;;;;;;;84.77;47.40;;;;;;;7.02;93.45;100375.16;2189896;81;20964;-83
2022/11/13 04:27:41;;;;;;;82.50;46.03;;;;;;;7.04;93.41;100375.23;2190207;81;20983;-85
2022/11/13 04:30:41;;;;;;;84.70;45.50;;;;;;;7.06;93.53;100376.61;2190065;81;20932;-83
2022/11/13 04:33:41;;;;;;;85.33;47.33;;;;;;;7.02;93.67;100377.75;2190292;81;21381;-83
2022/11/13 04:36:42;;;;;;;84.27;46.30;;;;;;;7.02;93.54;100373.86;2190161;81;21011;-84
2022/11/13 04:39:42;;;;;;;86.57;48.30;;;;;;;7.03;93.93;100373.05;2190152;81;21024;-84
2022/11/13 04:42:48;;;;;;;87.07;48.27;;;;;;;7.00;93.75;100371.59;2190017;81;21292;-85
2022/11/13 04:45:49;;;;;;;89.10;47.23;;;;;;;7.02;93.98;100380.35;2189965;81;20972;-84
2022/11/13 04:48:49;;;;;;;84.57;45.17;;;;;;;6.99;93.84;100378.90;2190076;81;20940;-84
2022/11/13 04:51:50;;;;;;;87.50;47.10;;;;;;;6.97;94.00;100377.94;2190051;81;21340;-84
2022/11/13 04:54:50;;;;;;;94.87;45.43;;;;;;;6.96;93.88;100374.85;2189847;81;21152;-84
2022/11/13 04:57:51;;;;;;;82.53;47.93;;;;;;;6.96;94.00;100376.56;2188374;81;21345;-83
2022/11/13 05:00:51;;;;;;;83.93;45.40;;;;;;;6.98;94.31;100382.31;2173685;81;20904;-84
2022/11/13 05:03:51;;;;;;;84.27;46.30;;;;;;;7.03;94.44;100377.34;2173377;81;20901;-84
2022/11/13 05:06:52;;;;;;;92.97;48.50;;;;;;;7.06;94.37;100380.09;2173496;82;21004;-84
2022/11/13 05:09:52;;;;;;;82.47;45.77;;;;;;;7.07;94.27;100374.09;2172995;81;21004;-84
2022/11/13 05:12:53;;;;;;;88.63;47.40;;;;;;;7.14;94.37;100368.80;2172690;81;20976;-84
2022/11/13 05:15:53;;;;;;;86.13;46.97;;;;;;;7.15;94.06;100374.47;2173159;81;21017;-84
2022/11/13 05:18:53;;;;;;;82.03;46.07;;;;;;;7.15;94.03;100380.97;2173313;81;20996;-84
2022/11/13 05:21:54;;;;;;;89.87;48.30;;;;;;;7.12;93.97;100378.22;2172180;81;20956;-84
2022/11/13 05:24:54;;;;;;;81.97;46.17;;;;;;;7.10;93.89;100380.73;2172510;81;20969;-84
2022/11/13 05:27:55;;;;;;;81.43;46.93;;;;;;;7.05;93.86;100373.53;2171788;81;21700;-83
2022/11/13 05:30:55;;;;;;;86.00;47.77;;;;;;;7.00;94.21;100370.30;2171311;81;20921;-85
2022/11/13 05:33:55;;;;;;;87.93;48.30;;;;;;;7.01;94.27;100375.97;2171566;81;20979;-84
2022/11/13 05:36:56;;;;;;;77.87;47.87;;;;;;;6.99;94.33;100369.81;2172168;81;21395;-82
2022/11/13 05:39:56;;;;;;;84.20;47.53;;;;;;;6.99;94.40;100370.22;2172104;81;21723;-83
2022/11/13 05:42:57;;;;;;;77.03;46.73;;;;;;;7.00;94.61;100375.90;2172288;81;20972;-83
2022/11/13 05:45:57;;;;;;;82.53;46.63;;;;;;;7.01;94.66;100374.67;2172482;81;20980;-82
2022/11/13 05:48:57;;;;;;;83.70;47.87;;;;;;;7.02;94.54;100377.75;2171979;82;21258;-83
2022/11/13 05:51:58;;;;;;;82.97;48.00;;;;;;;7.01;94.53;100373.38;2171803;81;20925;-83
2022/11/13 05:54:58;;;;;;;90.93;50.97;;;;;;;7.02;94.67;100372.56;2172042;81;20909;-87
2022/11/13 05:57:59;;;;;;;81.13;42.57;;;;;;;8.53;100.00;100364.16;2171897;81;21293;-81
2022/11/13 06:00:59;;;;;;;67.13;38.30;;;;;;;10.76;100.00;100357.05;2172294;81;20901;-83
2022/11/13 06:03:59;;;;;;;65.77;36.93;;;;;;;12.23;100.00;100348.78;2172670;81;20901;-82
2022/11/13 06:07:00;;;;;;;75.20;40.63;;;;;;;13.22;100.00;100350.23;2172389;81;21313;-81
2022/11/13 06:10:00;;;;;;;67.77;38.73;;;;;;;13.67;97.33;100347.40;2172270;81;21044;-84
2022/11/13 06:13:01;;;;;;;62.90;38.47;;;;;;;14.05;95.46;100351.34;2172496;81;20985;-84
2022/11/13 06:16:01;;;;;;;172.00;44.80;;;;;;;14.28;91.87;100352.71;2172614;81;20945;-85
2022/11/13 06:19:01;;;;;;;294.27;48.83;;;;;;;14.59;91.06;100358.63;2172964;82;20933;-84
2022/11/13 06:22:02;;;;;;;229.25;46.28;;;;;;;14.96;91.55;100353.66;2173350;81;20967;-84
2022/11/13 06:25:02;;;;;;;183.18;42.67;;;;;;;15.08;87.74;100357.83;2173491;81;21009;-84
2022/11/13 06:28:03;;;;;;;194.17;44.42;;;;;;;15.09;86.92;100347.77;2173433;81;21317;-84
2022/11/13 06:31:03;;;;;;;217.20;43.50;;;;;;;15.29;87.71;100348.09;2173391;81;21381;-83
2022/11/13 06:34:04;;;;;;;134.15;43.40;;;;;;;15.38;82.36;100348.25;2173237;81;20952;-84
2022/11/13 06:37:04;;;;;;;143.37;42.38;;;;;;;15.38;85.78;100356.14;2173278;81;20972;-85
2022/11/13 06:40:04;;;;;;;102.50;42.75;;;;;;;15.57;85.54;100354.30;2173468;81;21325;-84
2022/11/13 06:43:05;;;;;;;118.40;40.78;;;;;;;15.65;83.00;100357.08;2173389;81;21362;-83
2022/11/13 06:46:05;;;;;;;147.60;43.87;;;;;;;15.67;82.92;100352.72;2173467;81;20941;-83
2022/11/13 06:49:06;;;;;;;128.87;42.13;;;;;;;15.78;81.03;100353.77;2172826;81;20968;-84
2022/11/13 06:52:06;;;;;;;107.52;42.75;;;;;;;15.91;82.24;100346.50;2173264;81;20948;-83
2022/11/13 06:55:06;;;;;;;103.47;41.20;;;;;;;16.00;80.75;100352.33;2173178;81;21368;-82
2022/11/13 06:58:07;;;;;;;99.50;40.88;;;;;;;15.96;80.21;100356.21;2172864;81;20969;-83
2022/11/13 07:01:07;;;;;;;89.50;40.65;;;;;;;15.98;79.75;100355.80;2172979;81;21000;-84
2022/11/13 07:04:08;;;;;;;120.42;39.78;;;;;;;15.90;77.29;100364.48;2173229;81;20965;-84
2022/11/13 07:07:08;;;;;;;102.00;40.85;;;;;;;15.93;78.28;100360.57;2173143;81;20933;-83
2022/11/13 07:10:08;;;;;;;97.00;38.05;;;;;;;15.89;77.92;100360.50;2172384;81;21004;-83
2022/11/13 07:13:09;;;;;;;78.87;38.65;;;;;;;15.83;79.00;100365.25;2172611;81;20969;-84
2022/11/13 07:16:09;;;;;;;86.20;39.88;;;;;;;16.00;77.66;100352.75;2171977;81;20976;-83
2022/11/13 07:19:10;;;;;;;89.90;39.00;;;;;;;15.96;75.72;100350.52;2171873;81;21444;-84
2022/11/13 07:22:12;;;;;;;70.28;37.38;;;;;;;15.84;76.40;100352.54;2160704;82;20929;-82
2022/11/13 07:25:12;;;;;;;76.17;38.23;;;;;;;15.95;77.07;100355.76;2171904;81;20944;-82
2022/11/13 07:28:13;;;;;;;87.35;40.55;;;;;;;16.16;75.95;100342.88;2171896;81;21270;-83
2022/11/13 07:31:13;;;;;;;73.95;37.30;;;;;;;16.08;74.55;100343.20;2172624;81;20949;-82
2022/11/13 07:34:14;;;;;;;79.35;37.85;;;;;;;16.03;75.27;100346.21;2172797;81;20956;-82
2022/11/13 07:37:14;;;;;;;68.42;39.55;;;;;;;16.15;75.35;100348.58;2172860;81;21337;-82
2022/11/13 07:40:14;;;;;;;72.60;36.77;;;;;;;16.11;72.07;100347.20;2172536;82;21443;-83
2022/11/13 07:43:15;;;;;;;75.75;36.85;;;;;;;16.00;73.21;100353.64;2172750;81;20992;-83
2022/11/13 07:46:15;;;;;;;75.97;38.30;;;;;;;16.05;73.98;100356.34;2172917;81;20953;-82
2022/11/13 07:49:16;;;;;;;67.08;38.05;;;;;;;15.95;72.83;100355.33;2173090;81;20948;-82
2022/11/13 07:52:16;;;;;;;69.37;37.50;;;;;;;15.79;72.17;100360.80;2172846;81;21371;-83
2022/11/13 07:55:18;;;;;;;65.50;37.75;;;;;;;15.75;72.25;100359.42;2161653;82;20968;-84
2022/11/13 07:58:19;;;;;;;70.28;36.33;;;;;;;15.67;70.95;100360.62;2173649;80;20949;-83
2022/11/13 08:01:19;;;;;;;61.92;37.00;;;;;;;15.72;74.80;100362.00;2173694;81;20961;-83
2022/11/13 08:04:20;;;;;;;66.70;36.65;;;;;;;15.88;70.46;100369.27;2173677;81;21313;-83
2022/11/13 08:07:20;;;;;;;66.22;36.65;;;;;;;15.83;73.71;100361.73;2173916;81;20941;-83
2022/11/13 08:10:20;;;;;;;58.50;36.83;;;;;;;15.86;72.60;100371.88;2173821;81;21059;-82
2022/11/13 08:13:21;;;;;;;60.78;34.90;;;;;;;15.99;72.65;100372.94;2173843;81;21508;-83
2022/11/13 08:16:24;;;;;;;63.35;32.75;;;;;;;16.22;72.28;100382.48;2173356;81;20956;-83
2022/11/13 08:19:22;;;;;;;57.67;34.58;;;;;;;16.35;72.31;100375.62;2173122;81;21000;-83
2022/11/13 08:22:22;;;;;;;61.85;34.67;;;;;;;16.28;70.24;100365.86;2172927;81;20964;-84
2022/11/13 08:25:22;;;;;;;58.63;36.30;;;;;;;16.09;70.44;100368.25;2172928;81;20937;-84
2022/11/13 08:28:23;;;;;;;55.45;35.40;;;;;;;16.04;70.92;100371.69;2173093;81;20937;-83
2022/11/13 08:31:23;;;;;;;52.30;34.90;;;;;;;16.25;71.40;100366.70;2172601;81;20953;-84
2022/11/13 08:34:24;;;;;;;54.05;34.63;;;;;;;16.34;70.87;100374.73;2173189;81;20944;-83
2022/11/13 08:37:24;;;;;;;56.60;35.75;;;;;;;16.47;71.91;100369.18;2172153;81;20913;-83
2022/11/13 08:40:24;;;;;;;50.90;33.13;;;;;;;16.59;69.50;100371.11;2172167;81;21040;-84
2022/11/13 08:43:25;;;;;;;58.20;34.53;;;;;;;16.48;68.99;100368.34;2172663;81;20929;-82
2022/11/13 08:46:25;;;;;;;59.05;36.00;;;;;;;16.52;69.84;100374.99;2173030;81;20929;-85
2022/11/13 08:49:26;;;;;;;56.42;34.70;;;;;;;16.58;69.74;100373.30;2172769;81;20981;-84
2022/11/13 08:52:26;;;;;;;53.55;32.70;;;;;;;16.41;68.34;100377.02;2173611;81;20952;-82
2022/11/13 08:55:27;;;;;;;54.30;34.70;;;;;;;16.24;64.67;100379.00;2173830;81;21325;-84
2022/11/13 08:58:27;;;;;;;59.42;36.95;;;;;;;16.12;70.06;100388.48;2173606;81;21000;-83
2022/11/13 09:01:27;;;;;;;55.65;34.18;;;;;;;16.34;70.83;100381.32;2189599;81;21324;-81
2022/11/13 09:04:28;;;;;;;56.80;34.58;;;;;;;16.37;68.53;100387.95;2190108;81;20928;-85
2022/11/13 09:07:28;;;;;;;48.30;30.77;;;;;;;16.30;68.32;100392.69;2190175;81;20976;-84
2022/11/13 09:10:29;;;;;;;53.00;33.70;;;;;;;16.19;69.46;100395.17;2190173;81;21082;-84
2022/11/13 09:13:29;;;;;;;49.40;32.78;;;;;;;16.07;68.87;100384.47;2190274;81;20976;-84
2022/11/13 09:16:29;;;;;;;55.67;34.48;;;;;;;16.16;69.23;100387.66;2190204;81;21085;-83
2022/11/13 09:19:30;;;;;;;51.65;31.62;;;;;;;16.22;69.60;100382.48;2190064;81;20924;-86
2022/11/13 09:22:30;;;;;;;50.12;31.12;;;;;;;16.30;69.53;100380.83;2190000;81;21019;-83
2022/11/13 09:25:31;;;;;;;50.73;31.93;;;;;;;16.43;69.17;100377.92;2190132;81;20960;-85
2022/11/13 09:28:31;;;;;;;51.10;32.15;;;;;;;16.60;69.67;100371.56;2189975;81;21012;-84
2022/11/13 09:31:31;;;;;;;50.17;32.25;;;;;;;16.77;67.74;100380.59;2190048;81;21317;-82
2022/11/13 09:34:35;;;;;;;50.30;32.80;;;;;;;16.62;68.44;100375.98;2189917;81;21375;-85
2022/11/13 09:37:35;;;;;;;46.90;32.97;;;;;;;16.66;69.49;100373.88;2190515;81;20976;-84
2022/11/13 09:40:35;;;;;;;57.17;35.40;;;;;;;16.72;68.03;100373.06;2190216;81;21050;-84
2022/11/13 09:43:36;;;;;;;54.23;33.18;;;;;;;16.58;67.62;100374.19;2190211;81;20924;-83
2022/11/13 09:46:36;;;;;;;50.75;33.55;;;;;;;16.56;69.38;100371.53;2190048;81;20921;-82
2022/11/13 09:49:37;;;;;;;56.60;35.55;;;;;;;16.65;69.52;100372.50;2190267;81;20945;-84
2022/11/13 09:52:37;;;;;;;52.27;35.03;;;;;;;16.67;68.43;100370.38;2189937;81;21018;-83
2022/11/13 09:55:37;;;;;;;54.58;34.55;;;;;;;16.83;68.43;100368.78;2189954;81;20956;-83
2022/11/13 09:58:38;;;;;;;54.77;33.95;;;;;;;16.90;67.46;100364.02;2189912;81;20988;-83
2022/11/13 10:01:38;;;;;;;41.18;28.67;;;;;;;16.99;67.80;100360.59;2173757;81;21255;-81
2022/11/13 10:04:39;;;;;;;48.65;30.08;;;;;;;17.21;66.23;100357.29;2173462;81;20925;-83
2022/11/13 10:07:39;;;;;;;44.55;30.08;;;;;;;17.10;65.53;100350.59;2173119;81;20984;-83
2022/11/13 10:10:39;;;;;;;47.90;30.50;;;;;;;16.95;64.20;100348.25;2173470;81;21024;-81
2022/11/13 10:13:40;;;;;;;47.75;29.85;;;;;;;16.91;65.83;100336.78;2173466;81;20985;-83
2022/11/13 10:16:40;;;;;;;51.28;30.48;;;;;;;17.00;66.35;100335.98;2173082;81;20977;-84
2022/11/13 10:19:41;;;;;;;50.90;30.48;;;;;;;17.04;65.35;100336.03;2173448;81;20945;-83
2022/11/13 10:22:41;;;;;;;50.95;31.87;;;;;;;16.85;65.05;100329.69;2173403;81;20964;-82
2022/11/13 10:25:42;;;;;;;48.55;31.73;;;;;;;16.80;64.77;100327.88;2173602;81;21373;-83
2022/11/13 10:28:42;;;;;;;49.55;31.60;;;;;;;16.85;63.99;100329.69;2173496;81;20948;-82
2022/11/13 10:31:42;;;;;;;46.45;29.75;;;;;;;16.88;64.92;100328.84;2173622;81;20976;-84
2022/11/13 10:34:43;;;;;;;39.92;26.82;;;;;;;16.76;64.74;100319.05;2173783;81;21093;-84
2022/11/13 10:37:43;;;;;;;42.80;26.70;;;;;;;16.73;63.77;100316.81;2173801;81;20949;-83
2022/11/13 10:40:43;;;;;;;43.68;26.90;;;;;;;16.62;64.01;100322.37;2173928;81;21004;-81
2022/11/13 10:43:44;;;;;;;46.15;29.65;;;;;;;16.61;65.90;100310.06;2173490;81;20993;-83
2022/11/13 10:46:44;;;;;;;49.75;31.07;;;;;;;16.65;66.19;100312.78;2173501;81;21067;-83
2022/11/13 10:49:45;;;;;;;48.30;29.90;;;;;;;16.87;64.65;100321.36;2173467;81;20933;-82
2022/11/13 10:52:45;;;;;;;45.33;29.65;;;;;;;16.71;65.23;100317.23;2173388;81;21039;-84
2022/11/13 10:55:46;;;;;;;55.30;31.35;;;;;;;16.79;66.23;100312.92;2173637;81;20937;-81
2022/11/13 10:58:46;;;;;;;51.37;30.62;;;;;;;16.72;65.92;100316.37;2173275;81;20996;-83
2022/11/13 11:01:48;;;;;;;53.40;32.73;;;;;;;16.84;64.32;100319.13;2187567;81;20972;-83
2022/11/13 11:04:47;;;;;;;52.80;33.40;;;;;;;16.92;64.73;100316.56;2189572;81;20959;-83
2022/11/13 11:07:47;;;;;;;49.33;29.63;;;;;;;16.99;64.42;100314.44;2189704;81;20937;-84
2022/11/13 11:12:14;;;;;;;50.28;31.50;;;;;;;16.98;65.16;100310.91;2189830;81;21035;-84
2022/11/13 11:13:48;;;;;;;50.78;30.45;;;;;;;17.18;63.79;100308.02;2189755;81;20960;-82
2022/11/13 11:16:48;;;;;;;54.45;31.23;;;;;;;17.19;64.58;100299.66;2189275;81;20999;-83
2022/11/13 11:19:49;;;;;;;48.15;31.25;;;;;;;17.20;61.56;100306.27;2189787;81;20960;-82
2022/11/13 11:22:49;;;;;;;59.85;34.73;;;;;;;16.96;64.45;100310.02;2189321;81;20975;-82
2022/11/13 11:25:50;;;;;;;59.25;34.58;;;;;;;17.06;63.91;100308.34;2189340;81;20984;-83
2022/11/13 11:28:50;;;;;;;62.65;35.52;;;;;;;17.07;63.39;100305.72;2189527;81;21336;-82
2022/11/13 11:31:50;;;;;;;64.95;35.85;;;;;;;17.10;63.70;100294.31;2189398;81;20972;-83
2022/11/13 11:34:51;;;;;;;59.80;34.45;;;;;;;17.06;63.13;100289.44;2189326;81;20940;-83
2022/11/13 11:37:51;;;;;;;62.33;34.30;;;;;;;17.11;64.09;100284.20;2189337;81;20956;-82
2022/11/13 11:40:52;;;;;;;64.60;34.25;;;;;;;17.32;64.18;100275.57;2189072;81;21007;-83
2022/11/13 11:43:53;;;;;;;66.60;36.45;;;;;;;17.27;62.97;100274.66;2188983;81;20901;-83
2022/11/13 11:46:52;;;;;;;61.37;35.45;;;;;;;17.18;62.31;100270.19;2189010;81;20991;-83
2022/11/13 11:49:53;;;;;;;59.48;33.92;;;;;;;16.94;62.31;100268.67;2189846;81;20960;-83
2022/11/13 11:52:53;;;;;;;61.23;33.10;;;;;;;16.73;62.48;100273.31;2189948;81;20979;-83
2022/11/13 11:55:54;;;;;;;56.20;32.90;;;;;;;16.88;64.14;100266.86;2190057;81;21014;-82
2022/11/13 11:58:54;;;;;;;58.30;32.73;;;;;;;16.92;62.32;100260.74;2189995;81;21388;-83
2022/11/13 12:01:54;;;;;;;55.45;34.25;;;;;;;16.98;63.90;100263.87;2189853;81;20968;-84
2022/11/13 12:04:55;;;;;;;56.23;32.78;;;;;;;17.05;63.41;100258.66;2189555;81;21354;-84
2022/11/13 12:07:55;;;;;;;58.17;33.50;;;;;;;16.85;63.30;100258.92;2189470;81;21007;-82
2022/11/13 12:10:56;;;;;;;66.53;36.65;;;;;;;16.86;63.96;100252.34;2189762;81;20977;-84
2022/11/13 12:13:56;;;;;;;59.03;34.25;;;;;;;16.93;63.95;100249.32;2190270;81;20980;-83
2022/11/13 12:16:57;;;;;;;58.92;32.93;;;;;;;17.11;63.24;100248.16;2189816;81;21372;-81
2022/11/13 12:19:57;;;;;;;55.58;33.92;;;;;;;17.19;62.47;100246.89;2189309;81;21284;-82
2022/11/13 12:22:58;;;;;;;51.77;32.13;;;;;;;17.14;62.55;100241.58;2189105;81;20944;-83
2022/11/13 12:25:58;;;;;;;53.58;31.77;;;;;;;17.12;62.80;100234.52;2189493;81;21000;-84
2022/11/13 12:28:58;;;;;;;59.77;33.83;;;;;;;17.22;61.59;100236.36;2189013;81;21340;-83
2022/11/13 12:31:59;;;;;;;57.65;31.77;;;;;;;17.13;63.27;100227.94;2189116;81;20987;-84
2022/11/13 12:34:59;;;;;;;55.70;32.15;;;;;;;17.28;62.82;100228.92;2189262;81;20963;-83
2022/11/13 12:38:00;;;;;;;58.25;34.03;;;;;;;17.33;62.50;100227.19;2189254;81;20897;-83
2022/11/13 12:41:00;;;;;;;56.95;33.92;;;;;;;17.32;61.31;100229.39;2189978;81;20941;-83
2022/11/13 12:44:00;;;;;;;58.15;33.45;;;;;;;17.27;61.60;100233.31;2190322;81;21369;-83
2022/11/13 12:47:01;;;;;;;54.20;31.73;;;;;;;16.76;61.15;100237.74;2190143;81;20928;-83
2022/11/13 12:50:01;;;;;;;54.13;31.75;;;;;;;16.78;63.23;100230.73;2189972;81;20960;-82
2022/11/13 12:53:01;;;;;;;57.35;33.00;;;;;;;16.83;61.75;100219.78;2190045;81;21343;-84
2022/11/13 12:56:02;;;;;;;57.83;32.40;;;;;;;16.96;62.14;100221.66;2189877;81;21013;-82
2022/11/13 12:59:02;;;;;;;53.68;32.48;;;;;;;17.00;63.72;100215.97;2190106;81;20952;-83
2022/11/13 13:02:03;;;;;;;52.38;30.30;;;;;;;17.13;62.59;100209.47;2176268;81;20993;-84
2022/11/13 13:05:03;;;;;;;50.52;31.80;;;;;;;17.18;63.05;100204.23;2173285;81;21384;-82
2022/11/13 13:08:03;;;;;;;55.28;32.55;;;;;;;17.18;61.77;100207.75;2173358;81;21009;-83
2022/11/13 13:11:04;;;;;;;52.05;29.75;;;;;;;17.08;62.65;100203.28;2173174;81;20956;-84
2022/11/13 13:14:04;;;;;;;56.28;32.13;;;;;;;17.14;61.34;100208.59;2173126;81;20992;-83
2022/11/13 13:17:05;;;;;;;57.30;32.90;;;;;;;17.01;61.55;100209.81;2173113;81;21004;-83
2022/11/13 13:20:05;;;;;;;57.25;32.45;;;;;;;16.88;61.51;100202.25;2173018;81;21353;-84
2022/11/13 13:23:05;;;;;;;53.65;29.70;;;;;;;16.80;60.71;100201.30;2172921;81;20996;-83
2022/11/13 13:26:06;;;;;;;56.15;31.75;;;;;;;16.42;63.08;100201.77;2172938;81;20976;-83
2022/11/13 13:29:06;;;;;;;54.10;31.00;;;;;;;16.41;60.61;100193.42;2173053;81;21028;-84
2022/11/13 13:32:07;;;;;;;49.75;29.23;;;;;;;16.33;63.51;100195.53;2173145;81;21019;-83
2022/11/13 13:35:07;;;;;;;66.60;32.13;;;;;;;16.36;63.36;100192.49;2173481;81;21330;-83
2022/11/13 13:38:08;;;;;;;53.80;30.17;;;;;;;16.44;63.98;100182.91;2173080;81;20961;-84
2022/11/13 13:41:08;;;;;;;80.12;34.45;;;;;;;16.33;63.53;100180.61;2173193;81;20925;-82